sensor_id;sensor_type;location;lat;lon;timestamp;pressure;altitude;pressure_sealevel;temperature;humidity
53689;BME280;39583;54.682;30.662;2022-10-23T07:45:46;99060.84;;;7.34;96.86
53689;BME280;39583;54.682;30.662;2022-10-23T07:48:20;99062.59;;;7.67;96.26
53689;BME280;39583;54.682;30.662;2022-10-23T07:50:59;99060.88;;;7.92;95.14
53689;BME280;39583;54.682;30.662;2022-10-23T07:53:27;99051.72;;;8.07;94.63
53689;BME280;39583;54.682;30.662;2022-10-23T07:56:02;99070.41;;;8.26;93.58
53689;BME280;39583;54.682;30.662;2022-10-23T07:58:52;99073.06;;;8.33;92.64
53689;BME280;39583;54.682;30.662;2022-10-23T08:01:25;99071.63;;;8.31;92.24
53689;BME280;39583;54.682;30.662;2022-10-23T08:03:52;99079.69;;;8.31;92.24
53689;BME280;39583;54.682;30.662;2022-10-23T08:06:19;99084.63;;;8.34;92.33
53689;BME280;39583;54.682;30.662;2022-10-23T08:08:45;99080.28;;;8.33;91.61
53689;BME280;39583;54.682;30.662;2022-10-23T08:11:12;99067.56;;;8.21;91.58
53689;BME280;39583;54.682;30.662;2022-10-23T08:13:48;99077.59;;;8.33;91.61
53689;BME280;39583;54.682;30.662;2022-10-23T08:16:14;99079.72;;;8.24;90.79
53689;BME280;39583;54.682;30.662;2022-10-23T08:18:59;99076.44;;;8.22;91.33
53689;BME280;39583;54.682;30.662;2022-10-23T08:21:27;99057.69;;;8.15;91.33
53689;BME280;39583;54.682;30.662;2022-10-23T08:23:55;99073.28;;;8.32;91.24
53689;BME280;39583;54.682;30.662;2022-10-23T08:26:21;99075.13;;;8.31;90.83
53689;BME280;39583;54.682;30.662;2022-10-23T08:28:50;99078.03;;;8.29;90.71
53689;BME280;39583;54.682;30.662;2022-10-23T08:31:18;99081.50;;;8.43;91.04
53689;BME280;39583;54.682;30.662;2022-10-23T08:34:05;99079.63;;;8.50;90.59
53689;BME280;39583;54.682;30.662;2022-10-23T08:36:32;99083.50;;;8.54;90.01
53689;BME280;39583;54.682;30.662;2022-10-23T08:38:58;99086.56;;;8.58;90.33
53689;BME280;39583;54.682;30.662;2022-10-23T08:41:42;99085.53;;;8.59;89.84
53689;BME280;39583;54.682;30.662;2022-10-23T08:44:39;99090.34;;;8.50;89.36
53689;BME280;39583;54.682;30.662;2022-10-23T08:47:40;99083.34;;;8.43;89.69
53689;BME280;39583;54.682;30.662;2022-10-23T08:53:15;99089.31;;;8.45;89.52
53689;BME280;39583;54.682;30.662;2022-10-23T08:56:03;99087.72;;;8.31;88.99
53689;BME280;39583;54.682;30.662;2022-10-23T08:58:46;99091.91;;;8.20;89.21
53689;BME280;39583;54.682;30.662;2022-10-23T09:03:56;99094.78;;;8.25;89.89
53689;BME280;39583;54.682;30.662;2022-10-23T09:06:42;99096.81;;;8.29;89.53
53689;BME280;39583;54.682;30.662;2022-10-23T09:12:28;99107.94;;;8.40;89.26
53689;BME280;39583;54.682;30.662;2022-10-23T09:17:42;99107.13;;;8.39;89.07
53689;BME280;39583;54.682;30.662;2022-10-23T09:20:19;99098.25;;;8.39;88.87
53689;BME280;39583;54.682;30.662;2022-10-23T09:22:49;99095.16;;;8.28;88.49
53689;BME280;39583;54.682;30.662;2022-10-23T09:25:26;99093.75;;;8.26;88.71
53689;BME280;39583;54.682;30.662;2022-10-23T09:27:55;99096.22;;;8.34;89.11
53689;BME280;39583;54.682;30.662;2022-10-23T09:30:30;99099.28;;;8.31;88.33
53689;BME280;39583;54.682;30.662;2022-10-23T09:32:58;99089.19;;;8.26;88.45
53689;BME280;39583;54.682;30.662;2022-10-23T09:35:28;99096.25;;;8.21;88.29
53689;BME280;39583;54.682;30.662;2022-10-23T09:37:56;99088.38;;;8.26;88.37
53689;BME280;39583;54.682;30.662;2022-10-23T09:42:57;99096.44;;;8.19;87.90
53689;BME280;39583;54.682;30.662;2022-10-23T09:45:28;99083.09;;;8.06;87.67
53689;BME280;39583;54.682;30.662;2022-10-23T09:48:16;99090.72;;;8.09;88.03
53689;BME280;39583;54.682;30.662;2022-10-23T09:50:53;99071.75;;;8.04;88.12
53689;BME280;39583;54.682;30.662;2022-10-23T09:53:35;99095.81;;;8.24;87.54
53689;BME280;39583;54.682;30.662;2022-10-23T09:59:03;99098.66;;;8.29;87.46
53689;BME280;39583;54.682;30.662;2022-10-23T10:01:34;99096.38;;;8.33;87.63
53689;BME280;39583;54.682;30.662;2022-10-23T10:04:39;99094.53;;;8.40;87.31
53689;BME280;39583;54.682;30.662;2022-10-23T10:07:27;99101.97;;;8.31;86.64
53689;BME280;39583;54.682;30.662;2022-10-23T10:09:55;99108.34;;;8.30;87.01
53689;BME280;39583;54.682;30.662;2022-10-23T10:12:38;99105.25;;;8.40;87.12
53689;BME280;39583;54.682;30.662;2022-10-23T10:15:32;99099.25;;;8.44;86.53
53689;BME280;39583;54.682;30.662;2022-10-23T10:20:56;99097.59;;;8.43;86.28
53689;BME280;39583;54.682;30.662;2022-10-23T10:43:09;99085.59;;;8.46;85.59
53689;BME280;39583;54.682;30.662;2022-10-23T10:45:46;99082.31;;;8.44;85.54
53689;BME280;39583;54.682;30.662;2022-10-23T10:48:26;99088.56;;;8.38;85.18
53689;BME280;39583;54.682;30.662;2022-10-23T10:51:55;99086.97;;;8.17;84.86
53689;BME280;39583;54.682;30.662;2022-10-23T10:57:15;99059.06;;;7.86;85.21
53689;BME280;39583;54.682;30.662;2022-10-23T10:59:48;99082.53;;;7.97;85.56
53689;BME280;39583;54.682;30.662;2022-10-23T11:02:22;99088.06;;;8.03;85.72
53689;BME280;39583;54.682;30.662;2022-10-23T11:07:22;99086.78;;;8.12;85.37
53689;BME280;39583;54.682;30.662;2022-10-23T11:09:50;99090.47;;;8.17;85.62
53689;BME280;39583;54.682;30.662;2022-10-23T11:12:20;99091.91;;;8.20;85.18
53689;BME280;39583;54.682;30.662;2022-10-23T11:14:49;99090.09;;;8.14;85.00
53689;BME280;39583;54.682;30.662;2022-10-23T11:19:51;99073.44;;;7.92;84.74
53689;BME280;39583;54.682;30.662;2022-10-23T11:26:05;99074.75;;;7.83;85.35
53689;BME280;39583;54.682;30.662;2022-10-23T11:36:15;99072.41;;;7.99;84.89
53689;BME280;39583;54.682;30.662;2022-10-23T11:38:51;99076.09;;;8.05;84.75
53689;BME280;39583;54.682;30.662;2022-10-23T11:41:26;99071.13;;;8.09;84.95
53689;BME280;39583;54.682;30.662;2022-10-23T11:44:00;99075.81;;;8.20;85.06
53689;BME280;39583;54.682;30.662;2022-10-23T11:46:34;99067.13;;;8.24;84.58
53689;BME280;39583;54.682;30.662;2022-10-23T11:49:01;99063.19;;;8.27;84.35
53689;BME280;39583;54.682;30.662;2022-10-23T11:51:38;99066.88;;;8.33;84.52
53689;BME280;39583;54.682;30.662;2022-10-23T11:59:27;99027.28;;;8.35;84.07
53689;BME280;39583;54.682;30.662;2022-10-23T12:01:55;99078.66;;;8.70;83.95
53689;BME280;39583;54.682;30.662;2022-10-23T12:04:26;99071.19;;;8.72;84.19
53689;BME280;39583;54.682;30.662;2022-10-23T12:06:57;99078.56;;;8.83;83.79
53689;BME280;39583;54.682;30.662;2022-10-23T12:09:30;99074.53;;;8.99;83.60
53689;BME280;39583;54.682;30.662;2022-10-23T12:12:25;99078.13;;;9.11;83.26
53689;BME280;39583;54.682;30.662;2022-10-23T12:15:06;99055.31;;;9.20;83.24
53689;BME280;39583;54.682;30.662;2022-10-23T12:17:38;99075.63;;;9.16;82.60
53689;BME280;39583;54.682;30.662;2022-10-23T12:25:35;99083.03;;;8.64;82.69
53689;BME280;39583;54.682;30.662;2022-10-23T12:28:33;99074.16;;;8.64;83.00
53689;BME280;39583;54.682;30.662;2022-10-23T12:31:24;99071.41;;;8.70;82.92
53689;BME280;39583;54.682;30.662;2022-10-23T12:39:35;99085.06;;;8.69;82.93
53689;BME280;39583;54.682;30.662;2022-10-23T12:42:08;99080.03;;;8.79;82.80
53689;BME280;39583;54.682;30.662;2022-10-23T12:44:37;99085.56;;;8.84;82.57
53689;BME280;39583;54.682;30.662;2022-10-23T12:47:03;99088.44;;;8.89;82.50
53689;BME280;39583;54.682;30.662;2022-10-23T12:49:31;99087.63;;;8.89;82.23
53689;BME280;39583;54.682;30.662;2022-10-23T12:52:01;99086.56;;;8.90;82.49
53689;BME280;39583;54.682;30.662;2022-10-23T12:54:30;99083.88;;;8.90;82.36
53689;BME280;39583;54.682;30.662;2022-10-23T12:56:57;99088.00;;;8.92;82.41
53689;BME280;39583;54.682;30.662;2022-10-23T12:59:36;99076.44;;;8.92;82.20
53689;BME280;39583;54.682;30.662;2022-10-23T13:02:20;99084.13;;;8.88;82.07
53689;BME280;39583;54.682;30.662;2022-10-23T13:04:50;99065.63;;;8.73;82.12
53689;BME280;39583;54.682;30.662;2022-10-23T13:07:19;99081.25;;;8.83;82.30
53689;BME280;39583;54.682;30.662;2022-10-23T13:09:49;99083.50;;;8.86;82.33
53689;BME280;39583;54.682;30.662;2022-10-23T13:12:24;99085.38;;;8.85;82.15
53689;BME280;39583;54.682;30.662;2022-10-23T13:15:14;99083.09;;;8.82;82.00
53689;BME280;39583;54.682;30.662;2022-10-23T13:20:24;99079.28;;;8.97;82.21
53689;BME280;39583;54.682;30.662;2022-10-23T13:25:30;99080.66;;;9.06;81.92
53689;BME280;39583;54.682;30.662;2022-10-23T13:30:45;99086.28;;;8.98;81.82
53689;BME280;39583;54.682;30.662;2022-10-23T13:33:24;99054.38;;;8.83;81.74
53689;BME280;39583;54.682;30.662;2022-10-23T13:35:58;99056.25;;;8.82;81.74
53689;BME280;39583;54.682;30.662;2022-10-23T13:38:33;99083.88;;;8.90;81.63
53689;BME280;39583;54.682;30.662;2022-10-23T13:41:01;99080.00;;;8.85;81.70
53689;BME280;39583;54.682;30.662;2022-10-23T13:43:29;99070.50;;;8.83;81.74
53689;BME280;39583;54.682;30.662;2022-10-23T13:45:59;99081.69;;;8.80;81.69
53689;BME280;39583;54.682;30.662;2022-10-23T13:48:26;99063.03;;;8.60;81.63
53689;BME280;39583;54.682;30.662;2022-10-23T13:50:57;99080.91;;;8.73;81.83
53689;BME280;39583;54.682;30.662;2022-10-23T13:53:27;99073.25;;;8.76;81.80
53689;BME280;39583;54.682;30.662;2022-10-23T13:55:55;99062.72;;;8.75;81.82
53689;BME280;39583;54.682;30.662;2022-10-23T13:58:21;99074.81;;;8.84;82.00
53689;BME280;39583;54.682;30.662;2022-10-23T14:00:48;99076.66;;;8.90;81.71
53689;BME280;39583;54.682;30.662;2022-10-23T14:03:15;99078.28;;;8.91;81.84
53689;BME280;39583;54.682;30.662;2022-10-23T14:05:42;99078.06;;;8.93;81.75
53689;BME280;39583;54.682;30.662;2022-10-23T14:08:08;99058.53;;;8.85;81.65
53689;BME280;39583;54.682;30.662;2022-10-23T14:10:34;99070.19;;;8.98;81.85
53689;BME280;39583;54.682;30.662;2022-10-23T14:13:01;99067.66;;;9.03;81.71
53689;BME280;39583;54.682;30.662;2022-10-23T14:15:27;99070.34;;;9.03;81.59
53689;BME280;39583;54.682;30.662;2022-10-23T14:17:53;99068.72;;;9.02;81.58
53689;BME280;39583;54.682;30.662;2022-10-23T14:20:19;99050.78;;;8.96;81.81
53689;BME280;39583;54.682;30.662;2022-10-23T14:22:46;99070.06;;;9.11;81.63
53689;BME280;39583;54.682;30.662;2022-10-23T14:25:12;99069.06;;;9.12;81.48
53689;BME280;39583;54.682;30.662;2022-10-23T14:27:38;99066.41;;;9.05;81.39
53689;BME280;39583;54.682;30.662;2022-10-23T14:30:05;99079.16;;;9.10;81.33
53689;BME280;39583;54.682;30.662;2022-10-23T14:32:31;99080.66;;;9.06;81.40
53689;BME280;39583;54.682;30.662;2022-10-23T14:34:57;99061.53;;;8.96;81.49
53689;BME280;39583;54.682;30.662;2022-10-23T14:37:24;99076.78;;;9.02;81.57
53689;BME280;39583;54.682;30.662;2022-10-23T14:39:50;99079.69;;;9.00;81.51
53689;BME280;39583;54.682;30.662;2022-10-23T14:42:16;99078.03;;;8.99;81.55
53689;BME280;39583;54.682;30.662;2022-10-23T14:44:42;99081.34;;;8.95;81.42
53689;BME280;39583;54.682;30.662;2022-10-23T14:47:09;99073.53;;;8.93;81.62
53689;BME280;39583;54.682;30.662;2022-10-23T14:49:35;99053.84;;;8.74;81.61
53689;BME280;39583;54.682;30.662;2022-10-23T14:52:04;99072.97;;;8.84;81.60
53689;BME280;39583;54.682;30.662;2022-10-23T14:54:31;99076.53;;;8.78;81.89
53689;BME280;39583;54.682;30.662;2022-10-23T14:56:59;99072.47;;;8.69;81.78
53689;BME280;39583;54.682;30.662;2022-10-23T14:59:25;99078.31;;;8.60;82.20
53689;BME280;39583;54.682;30.662;2022-10-23T15:01:52;99086.38;;;8.60;82.35
53689;BME280;39583;54.682;30.662;2022-10-23T15:04:19;99079.34;;;8.58;82.78
53689;BME280;39583;54.682;30.662;2022-10-23T15:06:46;99077.69;;;8.57;82.83
53689;BME280;39583;54.682;30.662;2022-10-23T15:09:13;99077.47;;;8.59;83.00
53689;BME280;39583;54.682;30.662;2022-10-23T15:11:40;99078.31;;;8.60;82.88
53689;BME280;39583;54.682;30.662;2022-10-23T15:14:07;99086.56;;;8.58;82.80
53689;BME280;39583;54.682;30.662;2022-10-23T15:16:33;99085.13;;;8.55;83.09
53689;BME280;39583;54.682;30.662;2022-10-23T15:19:07;99083.72;;;8.53;83.19
53689;BME280;39583;54.682;30.662;2022-10-23T15:21:34;99075.50;;;8.48;83.36
53689;BME280;39583;54.682;30.662;2022-10-23T15:24:00;99084.31;;;8.55;83.43
53689;BME280;39583;54.682;30.662;2022-10-23T15:26:26;99076.09;;;8.50;83.34
53689;BME280;39583;54.682;30.662;2022-10-23T15:28:57;99085.97;;;8.56;83.42
53689;BME280;39583;54.682;30.662;2022-10-23T15:34:04;99071.56;;;8.50;83.41
53689;BME280;39583;54.682;30.662;2022-10-23T15:36:30;99080.81;;;8.54;83.43
53689;BME280;39583;54.682;30.662;2022-10-23T15:38:57;99081.25;;;8.51;83.53
53689;BME280;39583;54.682;30.662;2022-10-23T15:41:29;99084.31;;;8.55;83.69
53689;BME280;39583;54.682;30.662;2022-10-23T15:44:00;99090.06;;;8.58;83.74
53689;BME280;39583;54.682;30.662;2022-10-23T15:46:26;99076.66;;;8.58;83.78
53689;BME280;39583;54.682;30.662;2022-10-23T15:48:54;99070.09;;;8.54;83.56
53689;BME280;39583;54.682;30.662;2022-10-23T15:51:20;99081.00;;;8.60;83.71
53689;BME280;39583;54.682;30.662;2022-10-23T15:53:47;99078.31;;;8.60;83.73
53689;BME280;39583;54.682;30.662;2022-10-23T15:56:13;99080.38;;;8.57;83.78
53689;BME280;39583;54.682;30.662;2022-10-23T15:58:40;99088.66;;;8.56;83.83
53689;BME280;39583;54.682;30.662;2022-10-23T16:01:06;99091.56;;;8.54;83.71
53689;BME280;39583;54.682;30.662;2022-10-23T16:03:33;99087.44;;;8.52;83.96
53689;BME280;39583;54.682;30.662;2022-10-23T16:06:04;99094.44;;;8.53;83.91
53689;BME280;39583;54.682;30.662;2022-10-23T16:08:31;99089.31;;;8.51;83.94
53689;BME280;39583;54.682;30.662;2022-10-23T16:10:57;99090.34;;;8.50;84.19
53689;BME280;39583;54.682;30.662;2022-10-23T16:13:25;99091.97;;;8.51;84.35
53689;BME280;39583;54.682;30.662;2022-10-23T16:15:52;99079.00;;;8.48;84.49
53689;BME280;39583;54.682;30.662;2022-10-23T16:18:22;99086.41;;;8.53;84.68
53689;BME280;39583;54.682;30.662;2022-10-23T16:20:48;99088.25;;;8.52;84.59
53689;BME280;39583;54.682;30.662;2022-10-23T16:23:20;99088.69;;;8.49;84.65
53689;BME280;39583;54.682;30.662;2022-10-23T16:25:48;99079.00;;;8.48;84.91
53689;BME280;39583;54.682;30.662;2022-10-23T16:28:16;99080.88;;;8.48;84.84
53689;BME280;39583;54.682;30.662;2022-10-23T16:30:42;99089.13;;;8.46;84.78
53689;BME280;39583;54.682;30.662;2022-10-23T16:33:09;99088.28;;;8.46;85.03
53689;BME280;39583;54.682;30.662;2022-10-23T16:35:35;99084.78;;;8.45;85.18
53689;BME280;39583;54.682;30.662;2022-10-23T16:38:11;99073.44;;;8.43;85.43
53689;BME280;39583;54.682;30.662;2022-10-23T16:40:37;99083.13;;;8.51;85.50
53689;BME280;39583;54.682;30.662;2022-10-23T16:43:36;99082.91;;;8.52;85.53
53689;BME280;39583;54.682;30.662;2022-10-23T16:46:18;99083.50;;;8.54;85.63
53689;BME280;39583;54.682;30.662;2022-10-23T16:48:47;99087.06;;;8.48;85.42
53689;BME280;39583;54.682;30.662;2022-10-23T16:51:22;99082.91;;;8.46;85.81
53689;BME280;39583;54.682;30.662;2022-10-23T16:53:50;99084.59;;;8.47;86.11
53689;BME280;39583;54.682;30.662;2022-10-23T16:56:20;99084.97;;;8.50;86.18
53689;BME280;39583;54.682;30.662;2022-10-23T16:58:46;99086.63;;;8.51;86.17
53689;BME280;39583;54.682;30.662;2022-10-23T17:01:18;99081.84;;;8.53;86.23
53689;BME280;39583;54.682;30.662;2022-10-23T17:03:48;99085.41;;;8.47;86.29
53689;BME280;39583;54.682;30.662;2022-10-23T17:06:26;99080.88;;;8.48;86.46
53689;BME280;39583;54.682;30.662;2022-10-23T17:08:54;99080.47;;;8.44;86.73
53689;BME280;39583;54.682;30.662;2022-10-23T17:11:26;99079.63;;;8.50;86.84
53689;BME280;39583;54.682;30.662;2022-10-23T17:14:15;99083.94;;;8.51;86.82
53689;BME280;39583;54.682;30.662;2022-10-23T17:16:49;99081.84;;;8.53;86.96
53689;BME280;39583;54.682;30.662;2022-10-23T17:19:18;99076.06;;;8.56;86.98
53689;BME280;39583;54.682;30.662;2022-10-23T17:21:45;99052.63;;;8.39;86.98
53689;BME280;39583;54.682;30.662;2022-10-23T17:24:12;99072.97;;;8.53;87.30
53689;BME280;39583;54.682;30.662;2022-10-23T17:26:45;99079.78;;;8.55;87.63
53689;BME280;39583;54.682;30.662;2022-10-23T17:29:12;99073.97;;;8.58;87.49
53689;BME280;39583;54.682;30.662;2022-10-23T17:31:42;99070.06;;;8.61;87.40
53689;BME280;39583;54.682;30.662;2022-10-23T17:34:13;99071.50;;;8.57;87.57
53689;BME280;39583;54.682;30.662;2022-10-23T17:36:42;99073.38;;;8.56;87.55
53689;BME280;39583;54.682;30.662;2022-10-23T17:39:13;99078.50;;;8.58;87.69
53689;BME280;39583;54.682;30.662;2022-10-23T17:41:40;99082.25;;;8.57;87.76
53689;BME280;39583;54.682;30.662;2022-10-23T17:44:08;99074.41;;;8.55;87.82
53689;BME280;39583;54.682;30.662;2022-10-23T17:46:36;99069.84;;;8.56;88.04
53689;BME280;39583;54.682;30.662;2022-10-23T17:49:04;99077.28;;;8.61;88.09
53689;BME280;39583;54.682;30.662;2022-10-23T17:51:32;99077.88;;;8.63;88.22
53689;BME280;39583;54.682;30.662;2022-10-23T17:54:02;99078.25;;;8.66;88.25
53689;BME280;39583;54.682;30.662;2022-10-23T17:56:31;99082.16;;;8.70;88.10
53689;BME280;39583;54.682;30.662;2022-10-23T17:59:02;99075.13;;;8.69;88.20
53689;BME280;39583;54.682;30.662;2022-10-23T18:01:29;99073.28;;;8.70;88.32
53689;BME280;39583;54.682;30.662;2022-10-23T18:04:00;99073.88;;;8.72;88.43
53689;BME280;39583;54.682;30.662;2022-10-23T18:06:33;99080.25;;;8.77;88.62
53689;BME280;39583;54.682;30.662;2022-10-23T18:09:02;99085.78;;;8.82;88.63
53689;BME280;39583;54.682;30.662;2022-10-23T18:11:35;99090.53;;;8.87;88.67
53689;BME280;39583;54.682;30.662;2022-10-23T18:14:06;99089.03;;;8.91;88.61
53689;BME280;39583;54.682;30.662;2022-10-23T18:16:35;99063.94;;;8.79;88.45
53689;BME280;39583;54.682;30.662;2022-10-23T18:19:03;99066.78;;;8.84;88.55
53689;BME280;39583;54.682;30.662;2022-10-23T18:21:30;99087.97;;;8.99;88.51
53689;BME280;39583;54.682;30.662;2022-10-23T18:24:01;99096.16;;;9.04;88.66
53689;BME280;39583;54.682;30.662;2022-10-23T18:26:30;99089.53;;;9.06;88.64
53689;BME280;39583;54.682;30.662;2022-10-23T18:28:58;99094.69;;;9.08;88.63
53689;BME280;39583;54.682;30.662;2022-10-23T18:31:27;99092.59;;;9.10;88.71
53689;BME280;39583;54.682;30.662;2022-10-23T18:33:59;99094.47;;;9.09;88.79
53689;BME280;39583;54.682;30.662;2022-10-23T18:36:38;99103.75;;;9.13;88.79
53689;BME280;39583;54.682;30.662;2022-10-23T18:39:08;99098.97;;;9.15;88.87
53689;BME280;39583;54.682;30.662;2022-10-23T18:41:37;99103.28;;;9.16;88.87
53689;BME280;39583;54.682;30.662;2022-10-23T18:44:04;99098.31;;;9.20;89.02
